createdAt,value
2022-09-14T00:02:07.818Z,2.53
2022-09-14T00:04:37.287Z,3.42
2022-09-14T00:07:07.145Z,2.20
2022-09-14T00:09:36.532Z,1.80
2022-09-14T00:12:05.911Z,2.10
2022-09-14T00:14:35.979Z,3.13
2022-09-14T00:17:05.339Z,2.17
2022-09-14T00:19:34.672Z,1.30
2022-09-14T00:22:03.969Z,2.22
2022-09-14T00:24:35.054Z,2.50
2022-09-14T00:27:05.355Z,1.65
2022-09-14T00:29:34.931Z,2.28
2022-09-14T00:32:04.625Z,1.98
2022-09-14T00:34:34.822Z,1.67
2022-09-14T00:37:04.220Z,1.35
2022-09-14T00:39:33.475Z,1.95
2022-09-14T00:42:02.845Z,2.55
2022-09-14T00:44:32.030Z,2.00
2022-09-14T00:47:04.438Z,1.65
2022-09-14T00:52:11.752Z,1.33
2022-09-14T00:54:51.527Z,1.45
2022-09-14T00:57:22.189Z,1.40
2022-09-14T00:59:54.535Z,2.20
2022-09-14T01:04:55.727Z,1.50
2022-09-14T01:07:45.009Z,1.63
2022-09-14T01:10:32.561Z,2.35
2022-09-14T01:13:27.993Z,1.73
2022-09-14T01:16:00.194Z,1.67
2022-09-14T01:21:16.923Z,1.60
2022-09-14T01:23:54.847Z,2.17
2022-09-14T01:26:48.325Z,1.83
2022-09-14T01:29:29.793Z,1.30
2022-09-14T01:32:06.354Z,1.42
2022-09-14T01:34:53.730Z,1.60
2022-09-14T01:37:36.466Z,1.77
2022-09-14T01:40:28.562Z,1.85
2022-09-14T01:43:11.073Z,1.40
2022-09-14T01:45:49.341Z,1.67
2022-09-14T01:48:23.368Z,1.90
2022-09-14T01:51:01.179Z,1.48
2022-09-14T01:53:58.483Z,1.75
2022-09-14T01:56:35.378Z,2.00
2022-09-14T01:59:19.308Z,2.22
2022-09-14T02:01:59.195Z,1.58
2022-09-14T02:04:53.161Z,1.60
2022-09-14T02:07:23.936Z,1.55
2022-09-14T02:09:55.635Z,1.60
2022-09-14T02:12:25.816Z,1.38
2022-09-14T02:14:56.913Z,1.60
2022-09-14T02:17:26.383Z,2.03
2022-09-14T02:20:02.139Z,1.63
2022-09-14T02:22:33.000Z,1.95
2022-09-14T02:25:02.881Z,1.60
2022-09-14T02:27:32.258Z,1.70
2022-09-14T02:30:01.711Z,1.42
2022-09-14T02:32:49.696Z,1.92
2022-09-14T02:35:37.826Z,1.65
2022-09-14T02:38:28.090Z,1.50
2022-09-14T02:41:20.574Z,1.77
2022-09-14T02:44:12.694Z,1.55
2022-09-14T02:46:57.109Z,1.27
2022-09-14T02:49:54.836Z,1.90
2022-09-14T02:52:55.046Z,1.60
2022-09-14T02:55:28.907Z,1.73
2022-09-14T02:58:03.327Z,1.48
2022-09-14T03:00:36.769Z,1.73
2022-09-14T03:03:08.211Z,1.90
2022-09-14T03:05:38.264Z,1.87
2022-09-14T03:08:07.851Z,1.33
2022-09-14T03:10:37.359Z,1.90
2022-09-14T03:13:07.178Z,1.45
2022-09-14T03:15:36.486Z,1.42
2022-09-14T03:18:05.773Z,2.08
2022-09-14T03:20:36.713Z,1.40
2022-09-14T03:23:09.154Z,1.60
2022-09-14T03:25:42.339Z,1.95
2022-09-14T03:28:12.559Z,1.60
2022-09-14T03:30:42.173Z,2.65
2022-09-14T03:33:12.186Z,1.90
2022-09-14T03:35:43.141Z,2.10
2022-09-14T03:38:12.448Z,1.80
2022-09-14T03:40:41.932Z,2.88
2022-09-14T03:43:12.612Z,2.05
2022-09-14T03:45:42.299Z,2.13
2022-09-14T03:48:15.391Z,2.65
2022-09-14T03:50:44.969Z,1.85
2022-09-14T03:53:17.375Z,2.17
2022-09-14T03:58:16.018Z,1.48
2022-09-14T04:00:45.340Z,1.90
2022-09-14T04:03:14.685Z,1.20
2022-09-14T04:05:45.344Z,1.50
2022-09-14T04:08:14.613Z,1.70
2022-09-14T04:10:43.921Z,2.17
2022-09-14T04:13:13.204Z,1.52
2022-09-14T04:15:42.588Z,2.05
2022-09-14T04:18:12.327Z,2.05
2022-09-14T04:20:41.714Z,1.70
2022-09-14T04:23:12.364Z,1.70
2022-09-14T04:25:41.705Z,1.77
2022-09-14T04:28:20.298Z,1.80
2022-09-14T04:31:03.963Z,1.83
2022-09-14T04:33:35.443Z,1.50
2022-09-14T04:36:10.603Z,1.90
2022-09-14T04:38:40.932Z,2.03
2022-09-14T04:41:16.089Z,1.88
2022-09-14T04:43:46.831Z,1.70
2022-09-14T04:46:19.587Z,1.88
2022-09-14T04:48:49.822Z,2.35
2022-09-14T04:51:22.181Z,2.30
2022-09-14T04:53:54.551Z,2.42
2022-09-14T04:56:25.231Z,3.92
2022-09-14T04:59:00.282Z,3.40
2022-09-14T05:01:32.766Z,4.65
2022-09-14T05:04:02.269Z,5.03
2022-09-14T05:06:35.143Z,5.13
2022-09-14T05:09:06.356Z,5.80
2022-09-14T05:11:37.696Z,5.60
2022-09-14T05:14:07.901Z,4.77
2022-09-14T05:16:39.480Z,4.90
2022-09-14T05:19:13.722Z,4.95
2022-09-14T05:21:43.084Z,5.57
2022-09-14T05:24:18.311Z,3.38
2022-09-14T05:26:48.887Z,4.13
2022-09-14T05:29:20.239Z,4.55
2022-09-14T05:31:49.870Z,3.85
2022-09-14T05:34:19.318Z,3.92
2022-09-14T05:36:49.107Z,3.92
2022-09-14T05:39:23.039Z,2.67
2022-09-14T05:41:52.820Z,3.50
2022-09-14T05:44:22.079Z,3.17
2022-09-14T05:46:51.565Z,3.45
2022-09-14T05:49:20.921Z,3.03
2022-09-14T05:51:50.217Z,3.05
2022-09-14T05:54:19.523Z,2.72
2022-09-14T05:56:48.862Z,3.20
2022-09-14T05:59:18.206Z,3.80
2022-09-14T06:01:48.773Z,3.13
2022-09-14T06:04:18.050Z,2.80
2022-09-14T06:07:01.722Z,3.53
2022-09-14T06:09:36.763Z,3.13
2022-09-14T06:12:06.149Z,2.45
2022-09-14T06:14:35.383Z,2.75
2022-09-14T06:17:05.768Z,2.70
2022-09-14T06:19:35.197Z,2.83
2022-09-14T06:22:04.538Z,2.80
2022-09-14T06:24:33.820Z,3.08
2022-09-14T06:27:03.054Z,2.80
2022-09-14T06:29:32.289Z,2.70
2022-09-14T06:32:01.533Z,3.40
2022-09-14T06:34:30.792Z,2.58
2022-09-14T06:37:00.159Z,2.58
2022-09-14T06:39:29.418Z,3.80
2022-09-14T06:41:58.714Z,2.42
2022-09-14T06:44:31.232Z,2.53
2022-09-14T06:47:00.738Z,2.78
2022-09-14T06:49:30.198Z,2.67
2022-09-14T06:52:00.900Z,2.50
2022-09-14T06:54:30.377Z,2.33
2022-09-14T06:56:59.648Z,2.30
2022-09-14T06:59:29.075Z,2.92
2022-09-14T07:01:58.389Z,2.53
2022-09-14T07:04:27.686Z,2.63
2022-09-14T07:06:56.976Z,2.50
2022-09-14T07:09:26.431Z,2.90
2022-09-14T07:11:56.501Z,3.55
2022-09-14T07:14:29.238Z,3.33
2022-09-14T07:17:00.912Z,3.80
2022-09-14T07:19:30.176Z,4.32
2022-09-14T07:21:59.456Z,3.42
2022-09-14T07:24:28.688Z,3.85
2022-09-14T07:26:58.011Z,3.30
2022-09-14T07:29:27.358Z,3.42
2022-09-14T07:31:56.697Z,3.13
2022-09-14T07:34:26.544Z,3.45
2022-09-14T07:36:55.808Z,3.10
2022-09-14T07:39:25.068Z,3.25
2022-09-14T07:41:54.349Z,2.92
2022-09-14T07:44:23.738Z,3.63
2022-09-14T07:46:53.032Z,3.45
2022-09-14T07:49:22.486Z,2.72
2022-09-14T07:51:51.887Z,3.70
2022-09-14T07:54:21.713Z,3.67
2022-09-14T07:56:51.375Z,4.80
2022-09-14T07:59:37.157Z,4.38
2022-09-14T08:02:14.371Z,3.83
2022-09-14T08:04:44.050Z,3.40
2022-09-14T08:07:13.561Z,3.60
2022-09-14T08:09:42.824Z,3.20
2022-09-14T08:12:12.153Z,3.45
2022-09-14T08:14:43.903Z,2.95
2022-09-14T08:17:13.414Z,5.03
2022-09-14T08:19:42.639Z,3.50
2022-09-14T08:22:12.008Z,3.97
2022-09-14T08:24:42.548Z,4.28
2022-09-14T08:27:16.637Z,3.08
2022-09-14T08:29:46.599Z,3.88
2022-09-14T08:32:15.872Z,3.47
2022-09-14T08:34:45.108Z,3.78
2022-09-14T08:37:15.130Z,3.42
2022-09-14T08:39:50.893Z,3.92
2022-09-14T08:42:25.128Z,3.53
2022-09-14T08:45:09.852Z,3.40
2022-09-14T08:47:41.730Z,3.50
2022-09-14T08:50:20.788Z,3.78
2022-09-14T08:52:53.383Z,4.18
2022-09-14T08:55:49.890Z,4.68
2022-09-14T08:58:45.128Z,4.63
2022-09-14T09:01:33.644Z,4.63
2022-09-14T09:04:20.722Z,4.15
2022-09-14T09:06:58.399Z,3.85
2022-09-14T09:09:52.381Z,4.15
2022-09-14T09:12:24.819Z,2.70
2022-09-14T09:15:03.764Z,3.13
2022-09-14T09:17:47.367Z,2.00
2022-09-14T09:20:20.356Z,1.70
2022-09-14T09:23:11.509Z,1.80
2022-09-14T09:25:50.050Z,2.00
2022-09-14T09:28:19.944Z,1.85
2022-09-14T09:30:49.589Z,1.92
2022-09-14T09:33:23.915Z,1.70
2022-09-14T09:36:18.473Z,2.28
2022-09-14T09:38:47.743Z,3.15
2022-09-14T09:41:27.147Z,2.28
2022-09-14T09:44:09.494Z,1.75
2022-09-14T09:46:42.262Z,1.90
2022-09-14T09:49:39.014Z,1.67
2022-09-14T09:52:19.463Z,2.13
2022-09-14T09:54:54.250Z,2.10
2022-09-14T09:57:26.323Z,2.55
2022-09-14T10:00:12.360Z,2.50
2022-09-14T10:02:42.926Z,2.80
2022-09-14T10:05:12.257Z,2.50
2022-09-14T10:08:20.087Z,2.10
2022-09-14T10:10:49.403Z,2.50
2022-09-14T10:13:37.693Z,2.55
2022-09-14T10:16:19.906Z,1.90
2022-09-14T10:18:55.373Z,2.42
2022-09-14T10:21:27.244Z,2.33
2022-09-14T10:24:19.862Z,2.60
2022-09-14T10:29:27.146Z,2.40
2022-09-14T10:32:03.127Z,3.13
2022-09-14T10:34:33.923Z,2.00
2022-09-14T10:37:29.578Z,2.75
2022-09-14T10:40:15.763Z,3.63
2022-09-14T10:43:10.711Z,3.10
2022-09-14T10:45:53.187Z,3.17
2022-09-14T10:51:30.849Z,2.67
2022-09-14T10:54:15.050Z,2.53
2022-09-14T10:57:04.251Z,2.22
2022-09-14T10:59:53.096Z,2.10
2022-09-14T11:02:25.472Z,1.95
2022-09-14T11:05:12.279Z,1.90
2022-09-14T11:08:05.833Z,2.20
2022-09-14T11:11:13.667Z,2.63
2022-09-14T11:14:05.315Z,2.00
2022-09-14T11:16:59.497Z,2.13
2022-09-14T11:19:34.940Z,2.50
2022-09-14T11:22:41.986Z,1.95
2022-09-14T11:25:22.447Z,2.10
2022-09-14T11:28:00.262Z,2.80
2022-09-14T11:30:53.801Z,2.78
2022-09-14T11:33:38.341Z,2.30
2022-09-14T11:36:16.705Z,2.50
2022-09-14T11:38:56.227Z,2.70
2022-09-14T11:41:31.608Z,2.10
2022-09-14T11:44:06.447Z,2.60
2022-09-14T11:46:40.759Z,2.13
2022-09-14T11:49:28.874Z,2.40
2022-09-14T11:52:17.418Z,2.53
2022-09-14T11:54:47.167Z,2.63
2022-09-14T11:57:20.875Z,2.90
2022-09-14T11:59:54.103Z,3.30
2022-09-14T12:02:26.477Z,3.00
2022-09-14T12:05:08.204Z,2.65
2022-09-14T12:07:45.403Z,2.10
2022-09-14T12:10:17.764Z,2.10
2022-09-14T12:13:08.513Z,2.40
2022-09-14T12:15:41.146Z,1.83
2022-09-14T12:18:10.549Z,2.20
2022-09-14T12:20:52.934Z,2.50
2022-09-14T12:26:35.850Z,2.70
2022-09-14T12:29:28.221Z,2.47
2022-09-14T12:31:57.548Z,3.03
2022-09-14T12:34:31.985Z,2.00
2022-09-14T12:37:32.043Z,2.20
2022-09-14T12:40:23.107Z,2.00
2022-09-14T12:42:52.468Z,2.65
2022-09-14T12:45:51.880Z,3.50
2022-09-14T12:48:49.291Z,4.68
2022-09-14T12:51:39.587Z,4.20
2022-09-14T12:54:13.388Z,4.85
2022-09-14T12:57:09.027Z,6.32
2022-09-14T12:59:47.386Z,4.45
2022-09-14T13:02:29.061Z,5.90
2022-09-14T13:05:00.603Z,5.90
2022-09-14T13:07:36.690Z,4.70
2022-09-14T13:10:09.072Z,5.10
2022-09-14T13:15:23.728Z,4.82
2022-09-14T13:18:08.710Z,4.30
2022-09-14T13:20:38.821Z,4.53
2022-09-14T13:23:22.742Z,4.75
2022-09-14T13:25:53.322Z,4.50
2022-09-14T13:28:23.723Z,4.93
2022-09-14T13:31:04.587Z,4.65
2022-09-14T13:33:33.972Z,3.45
2022-09-14T13:36:05.692Z,4.32
2022-09-14T13:38:39.555Z,3.47
2022-09-14T13:41:13.746Z,3.17
2022-09-14T13:43:44.807Z,3.50
2022-09-14T13:46:18.386Z,3.78
2022-09-14T13:48:49.816Z,2.75
2022-09-14T13:51:19.444Z,2.90
2022-09-14T13:53:54.225Z,2.50
2022-09-14T13:56:31.012Z,2.65
2022-09-14T13:59:12.824Z,2.47
2022-09-14T14:01:44.933Z,2.60
2022-09-14T14:04:38.391Z,3.35
2022-09-14T14:07:27.634Z,3.03
2022-09-14T14:10:01.290Z,2.97
2022-09-14T14:12:36.982Z,3.45
2022-09-14T14:15:13.797Z,3.60
2022-09-14T14:17:44.218Z,3.65
2022-09-14T14:20:34.004Z,3.60
2022-09-14T14:23:22.920Z,5.18
2022-09-14T14:25:57.551Z,5.57
2022-09-14T14:28:30.244Z,5.82
2022-09-14T14:31:07.726Z,5.38
2022-09-14T14:33:38.603Z,5.80
2022-09-14T14:36:10.716Z,6.45
2022-09-14T14:38:40.948Z,6.32
2022-09-14T14:41:10.957Z,5.93
2022-09-14T14:43:44.025Z,4.72
2022-09-14T14:46:13.354Z,5.25
2022-09-14T14:48:42.774Z,3.90
2022-09-14T14:51:16.702Z,4.50
2022-09-14T14:53:46.163Z,3.97
2022-09-14T14:56:16.680Z,3.05
2022-09-14T14:58:47.970Z,3.30
2022-09-14T15:01:17.572Z,3.22
2022-09-14T15:03:47.213Z,3.40
2022-09-14T15:06:22.471Z,3.58
2022-09-14T15:08:56.644Z,3.60
2022-09-14T15:11:26.508Z,3.20
2022-09-14T15:13:56.011Z,4.43
2022-09-14T15:16:25.365Z,3.38
2022-09-14T15:18:54.635Z,2.85
2022-09-14T15:21:23.947Z,3.03
2022-09-14T15:23:53.391Z,2.97
2022-09-14T15:26:23.361Z,2.55
2022-09-14T15:28:52.677Z,2.13
2022-09-14T15:31:22.678Z,2.22
2022-09-14T15:33:52.014Z,2.30
2022-09-14T15:36:52.044Z,2.20
2022-09-14T15:39:29.400Z,2.50
2022-09-14T15:41:59.402Z,2.80
2022-09-14T15:44:29.570Z,2.28
2022-09-14T15:46:59.715Z,2.38
2022-09-14T15:49:29.240Z,2.78
2022-09-14T15:51:59.823Z,2.67
2022-09-14T15:54:35.863Z,2.90
2022-09-14T15:57:08.161Z,2.70
2022-09-14T16:02:07.436Z,2.75
2022-09-14T16:04:41.260Z,3.80
2022-09-14T16:07:12.386Z,3.03
2022-09-14T16:09:42.850Z,2.53
2022-09-14T16:12:15.104Z,2.72
2022-09-14T16:14:45.227Z,3.00
2022-09-14T16:17:14.560Z,2.85
2022-09-14T16:19:46.740Z,3.10
2022-09-14T16:22:16.018Z,4.35
2022-09-14T16:24:45.308Z,3.33
2022-09-14T16:27:14.611Z,3.25
2022-09-14T16:29:43.865Z,3.67
2022-09-14T16:32:13.303Z,3.90
2022-09-14T16:34:42.877Z,3.55
2022-09-14T16:37:12.166Z,4.40
2022-09-14T16:39:41.838Z,3.65
2022-09-14T16:42:11.108Z,3.88
2022-09-14T16:44:40.450Z,4.22
2022-09-14T16:47:09.793Z,3.58
2022-09-14T16:49:39.838Z,4.18
2022-09-14T16:52:09.148Z,4.15
2022-09-14T16:54:38.407Z,4.07
2022-09-14T16:57:07.688Z,4.30
2022-09-14T16:59:36.991Z,4.50
2022-09-14T17:02:06.399Z,4.88
2022-09-14T17:04:35.737Z,4.43
2022-09-14T17:07:05.064Z,4.05
2022-09-14T17:09:34.443Z,4.93
2022-09-14T17:12:03.726Z,4.10
2022-09-14T17:14:34.807Z,5.00
2022-09-14T17:17:04.256Z,5.00
2022-09-14T17:19:33.592Z,4.63
2022-09-14T17:22:03.925Z,4.57
2022-09-14T17:24:33.228Z,5.15
2022-09-14T17:27:02.925Z,5.97
2022-09-14T17:29:32.544Z,5.50
2022-09-14T17:32:01.999Z,5.65
2022-09-14T17:34:31.344Z,5.38
2022-09-14T17:37:00.640Z,5.35
2022-09-14T17:39:30.027Z,4.82
2022-09-14T17:41:59.338Z,5.32
2022-09-14T17:44:31.367Z,6.00
2022-09-14T17:47:01.286Z,5.57
2022-09-14T17:49:30.630Z,4.10
2022-09-14T17:52:01.462Z,5.53
2022-09-14T17:54:30.854Z,4.78
2022-09-14T17:57:00.106Z,5.90
2022-09-14T17:59:29.347Z,5.72
2022-09-14T18:01:58.624Z,5.97
2022-09-14T18:04:28.152Z,5.47
2022-09-14T18:06:57.447Z,4.88
2022-09-14T18:09:27.000Z,5.03
2022-09-14T18:11:58.652Z,5.80
2022-09-14T18:14:28.164Z,4.97
2022-09-14T18:16:59.839Z,5.30
2022-09-14T18:19:29.528Z,6.13
2022-09-14T18:21:58.870Z,4.97
2022-09-14T18:24:28.315Z,5.32
2022-09-14T18:26:57.631Z,5.00
2022-09-14T18:29:29.780Z,5.15
2022-09-14T18:31:59.204Z,5.40
2022-09-14T18:34:29.093Z,5.50
2022-09-14T18:36:58.512Z,4.65
2022-09-14T18:39:28.058Z,5.43
2022-09-14T18:41:57.393Z,5.20
2022-09-14T18:44:26.652Z,6.18
2022-09-14T18:46:55.959Z,5.82
2022-09-14T18:49:25.314Z,5.70
2022-09-14T18:51:54.627Z,4.97
2022-09-14T18:54:27.641Z,6.07
2022-09-14T18:56:57.217Z,5.15
2022-09-14T18:59:26.768Z,6.03
2022-09-14T19:01:56.124Z,5.75
2022-09-14T19:04:27.596Z,6.68
2022-09-14T19:06:56.939Z,5.57
2022-09-14T19:09:26.494Z,6.68
2022-09-14T19:11:55.831Z,6.25
2022-09-14T19:14:25.197Z,5.85
2022-09-14T19:16:54.516Z,5.97
2022-09-14T19:19:27.338Z,6.38
2022-09-14T19:21:56.697Z,6.13
2022-09-14T19:24:27.587Z,6.18
2022-09-14T19:26:56.873Z,6.20
2022-09-14T19:29:28.609Z,4.80
2022-09-14T19:31:58.436Z,5.78
2022-09-14T19:34:30.200Z,5.68
2022-09-14T19:36:59.606Z,5.03
2022-09-14T19:39:29.459Z,5.30
2022-09-14T19:41:59.005Z,6.30
2022-09-14T19:44:28.307Z,5.95
2022-09-14T19:46:58.573Z,5.05
2022-09-14T19:49:28.918Z,5.80
2022-09-14T19:51:58.188Z,6.20
2022-09-14T19:54:27.735Z,6.03
2022-09-14T19:56:57.067Z,6.97
2022-09-14T19:59:26.643Z,6.78
2022-09-14T20:01:56.722Z,6.63
2022-09-14T20:04:26.248Z,5.93
2022-09-14T20:06:56.504Z,4.80
2022-09-14T20:09:26.594Z,5.70
2022-09-14T20:11:56.006Z,5.97
2022-09-14T20:14:27.710Z,5.32
2022-09-14T20:16:59.753Z,6.05
2022-09-14T20:19:32.529Z,6.13
2022-09-14T20:22:01.790Z,6.15
2022-09-14T20:24:32.507Z,6.45
2022-09-14T20:27:03.394Z,5.90
2022-09-14T20:29:35.443Z,8.80
2022-09-14T20:32:06.611Z,6.65
2022-09-14T20:34:36.723Z,7.13
2022-09-14T20:37:06.188Z,7.28
2022-09-14T20:39:38.308Z,7.03
2022-09-14T20:42:08.112Z,7.75
2022-09-14T20:44:37.686Z,7.97
2022-09-14T20:47:07.071Z,6.85
2022-09-14T20:49:36.341Z,6.70
2022-09-14T20:52:05.963Z,6.50
2022-09-14T20:54:35.326Z,7.15
2022-09-14T20:57:04.837Z,7.22
2022-09-14T20:59:34.546Z,7.75
2022-09-14T21:02:05.664Z,7.80
2022-09-14T21:04:37.087Z,8.70
2022-09-14T21:07:06.410Z,7.68
2022-09-14T21:09:37.837Z,8.32
2022-09-14T21:12:11.644Z,7.40
2022-09-14T21:14:41.038Z,8.13
2022-09-14T21:17:10.495Z,9.55
2022-09-14T21:19:40.557Z,8.50
2022-09-14T21:22:09.815Z,7.88
2022-09-14T21:24:39.090Z,8.05
2022-09-14T21:27:08.394Z,8.88
2022-09-14T21:29:37.650Z,7.88
2022-09-14T21:32:09.097Z,9.38
2022-09-14T21:34:38.772Z,8.32
2022-09-14T21:37:08.818Z,7.97
2022-09-14T21:39:42.778Z,8.43
2022-09-14T21:42:12.040Z,7.68
2022-09-14T21:44:41.891Z,8.18
2022-09-14T21:47:11.178Z,7.82
2022-09-14T21:49:40.489Z,8.15
2022-09-14T21:52:09.777Z,7.65
2022-09-14T21:54:42.669Z,7.55
2022-09-14T21:57:12.273Z,7.43
2022-09-14T21:59:43.895Z,7.53
2022-09-14T22:02:13.225Z,6.90
2022-09-14T22:04:42.638Z,7.47
2022-09-14T22:07:11.894Z,7.80
2022-09-14T22:09:41.175Z,7.97
2022-09-14T22:12:10.723Z,8.75
2022-09-14T22:14:40.004Z,7.60
2022-09-14T22:17:11.925Z,7.95
2022-09-14T22:19:46.447Z,8.02
2022-09-14T22:22:15.727Z,8.63
2022-09-14T22:24:45.059Z,8.40
2022-09-14T22:27:17.473Z,8.20
2022-09-14T22:29:47.585Z,8.82
2022-09-14T22:32:16.849Z,8.55
2022-09-14T22:34:49.634Z,8.55
2022-09-14T22:37:19.294Z,8.65
2022-09-14T22:39:48.875Z,8.93
2022-09-14T22:42:18.195Z,9.35
2022-09-14T22:44:47.454Z,8.45
2022-09-14T22:47:16.707Z,8.77
2022-09-14T22:49:46.016Z,8.18
2022-09-14T22:52:15.325Z,9.07
2022-09-14T22:54:44.570Z,8.80
2022-09-14T22:57:13.914Z,8.68
2022-09-14T22:59:43.244Z,8.05
2022-09-14T23:02:12.891Z,8.68
2022-09-14T23:04:42.732Z,8.18
2022-09-14T23:07:12.050Z,8.40
2022-09-14T23:09:41.903Z,8.40
2022-09-14T23:12:11.243Z,8.95
2022-09-14T23:14:42.477Z,8.77
2022-09-14T23:17:13.112Z,8.85
2022-09-14T23:19:42.436Z,8.13
2022-09-14T23:22:11.735Z,8.15
2022-09-14T23:24:41.171Z,9.48
2022-09-14T23:27:10.480Z,8.63
2022-09-14T23:29:39.865Z,7.90
2022-09-14T23:32:09.572Z,8.35
2022-09-14T23:34:39.565Z,7.53
2022-09-14T23:37:09.055Z,8.45
2022-09-14T23:39:38.471Z,8.98
2022-09-14T23:42:07.958Z,8.13
2022-09-14T23:44:37.320Z,9.73
2022-09-14T23:47:06.714Z,10.23
2022-09-14T23:49:36.109Z,7.78
2022-09-14T23:52:05.804Z,8.05
2022-09-14T23:54:35.259Z,8.18
2022-09-14T23:57:04.570Z,8.05
2022-09-14T23:59:33.879Z,8.15
